Time;durP1;ratioP1;P1;durP2;ratioP2;P2;SDS_P1;SDS_P2;PMS_P1;PMS_P2;Temp;Humidity;BMP_temperature;BMP_pressure;BME280_temperature;BME280_humidity;BME280_pressure;Samples;Min_cycle;Max_cycle;Signal;HPM_P1;HPM_P2
2022/08/23 00:02:07;;;;;;;3.00;2.70;;;16.30;99.90;;;;;;5011238;28;20470;-69
2022/08/23 00:04:38;;;;;;;3.20;2.90;;;16.30;99.90;;;;;;5010639;28;20856;-69
2022/08/23 00:07:07;;;;;;;3.63;2.73;;;16.30;99.90;;;;;;5010791;28;20485;-69
2022/08/23 00:09:34;;;;;;;4.23;3.03;;;16.30;99.90;;;;;;5010964;28;20976;-69
2022/08/23 00:12:10;;;;;;;3.57;2.60;;;16.20;99.90;;;;;;5010501;28;20484;-70
2022/08/23 00:14:42;;;;;;;3.13;2.73;;;16.20;99.90;;;;;;5010452;28;20999;-69
2022/08/23 00:17:10;;;;;;;4.13;2.57;;;16.20;99.90;;;;;;5010816;28;20486;-69
2022/08/23 00:19:38;;;;;;;3.10;2.70;;;16.10;99.90;;;;;;5010679;28;20984;-69
2022/08/23 00:22:05;;;;;;;2.93;2.57;;;16.10;99.90;;;;;;5010918;28;20469;-68
2022/08/23 00:24:33;;;;;;;2.30;2.20;;;16.10;99.90;;;;;;5009866;28;20961;-69
2022/08/23 00:27:03;;;;;;;3.10;2.77;;;16.10;99.90;;;;;;5010746;28;20466;-68
2022/08/23 00:29:34;;;;;;;2.70;2.47;;;16.10;99.90;;;;;;5010360;28;20462;-69
2022/08/23 00:32:02;;;;;;;3.90;2.60;;;16.00;99.90;;;;;;5010528;28;20465;-68
2022/08/23 00:34:30;;;;;;;3.07;2.87;;;16.00;99.90;;;;;;5010225;28;21023;-68
2022/08/23 00:36:57;;;;;;;4.40;2.80;;;15.90;99.90;;;;;;5010283;28;20794;-69
2022/08/23 00:39:24;;;;;;;3.70;2.03;;;16.00;99.90;;;;;;5010623;28;20969;-69
2022/08/23 00:41:51;;;;;;;2.83;2.60;;;15.90;99.90;;;;;;5010176;28;20520;-69
2022/08/23 00:50:01;;;;;;;3.60;2.90;;;15.80;99.90;;;;;;5010508;28;20508;-69
2022/08/23 00:52:34;;;;;;;3.20;2.90;;;15.70;99.90;;;;;;5010431;28;20461;-68
2022/08/23 00:55:01;;;;;;;2.80;2.60;;;15.80;99.90;;;;;;5009911;28;20985;-68
2022/08/23 00:57:30;;;;;;;4.30;2.70;;;15.70;99.90;;;;;;5010380;28;20616;-69
2022/08/23 00:59:57;;;;;;;3.13;2.83;;;15.70;99.90;;;;;;5010081;28;20534;-69
2022/08/23 01:02:25;;;;;;;4.03;2.63;;;15.70;99.90;;;;;;5010456;28;20469;-68
2022/08/23 01:04:55;;;;;;;3.43;3.13;;;15.70;99.90;;;;;;5009081;28;20976;-69
2022/08/23 01:07:31;;;;;;;2.80;2.57;;;15.60;99.90;;;;;;5010311;28;20482;-69
2022/08/23 01:10:03;;;;;;;3.07;2.70;;;15.60;99.90;;;;;;5010339;28;20473;-69
2022/08/23 01:12:35;;;;;;;4.13;2.67;;;15.60;99.90;;;;;;5009945;28;20469;-69
2022/08/23 01:15:09;;;;;;;2.73;2.53;;;15.50;99.90;;;;;;5009903;28;20511;-69
2022/08/23 01:17:42;;;;;;;3.07;2.87;;;15.50;99.90;;;;;;5009659;28;21016;-70
2022/08/23 01:20:12;;;;;;;3.30;2.73;;;15.50;99.90;;;;;;5010233;28;20498;-68
2022/08/23 01:22:47;;;;;;;2.90;2.60;;;15.50;99.90;;;;;;5009864;28;20461;-69
2022/08/23 01:25:20;;;;;;;3.43;2.80;;;15.40;99.90;;;;;;5009613;28;20489;-69
2022/08/23 01:27:48;;;;;;;2.57;2.27;;;15.40;99.90;;;;;;5010133;28;20477;-69
2022/08/23 01:30:18;;;;;;;3.57;2.53;;;15.40;99.90;;;;;;5009776;28;20561;-69
2022/08/23 01:32:49;;;;;;;3.00;2.70;;;15.40;99.90;;;;;;5010542;28;20476;-70
2022/08/23 01:35:16;;;;;;;3.77;3.13;;;15.30;99.90;;;;;;5010081;28;20516;-68
2022/08/23 01:37:43;;;;;;;2.67;2.47;;;15.30;99.90;;;;;;5010226;28;20485;-69
2022/08/23 01:40:11;;;;;;;3.03;2.73;;;15.30;99.90;;;;;;5009812;28;20520;-68
2022/08/23 01:42:40;;;;;;;3.20;2.50;;;15.20;99.90;;;;;;5010171;28;20468;-69
2022/08/23 01:45:08;;;;;;;3.00;2.70;;;15.20;99.90;;;;;;5013308;28;20464;-68
2022/08/23 01:47:35;;;;;;;2.70;2.50;;;15.20;99.90;;;;;;5013462;28;20481;-68
2022/08/23 01:50:03;;;;;;;3.43;2.60;;;15.20;99.90;;;;;;5013825;28;20465;-69
2022/08/23 01:52:30;;;;;;;2.83;2.63;;;15.20;99.90;;;;;;5013088;28;20462;-68
2022/08/23 01:54:58;;;;;;;3.47;3.17;;;15.20;99.90;;;;;;5013187;28;20992;-69
2022/08/23 01:57:24;;;;;;;2.57;2.37;;;15.20;99.90;;;;;;5013244;28;20497;-68
2022/08/23 01:59:52;;;;;;;2.67;2.47;;;15.20;99.90;;;;;;5013146;28;20477;-69
2022/08/23 02:02:20;;;;;;;3.23;2.53;;;15.10;99.90;;;;;;5013430;28;20539;-68
2022/08/23 02:04:47;;;;;;;2.00;1.90;;;15.10;99.90;;;;;;5012632;28;20466;-69
2022/08/23 02:07:14;;;;;;;2.67;2.47;;;15.10;99.90;;;;;;5013416;28;20490;-69
2022/08/23 02:09:40;;;;;;;2.70;2.50;;;15.10;99.90;;;;;;5012944;28;20957;-69
2022/08/23 02:12:07;;;;;;;2.60;2.40;;;15.00;99.90;;;;;;5013593;28;20466;-69
2022/08/23 02:14:36;;;;;;;3.77;2.70;;;15.00;99.90;;;;;;5012918;28;20470;-69
2022/08/23 02:17:04;;;;;;;3.57;2.60;;;15.00;99.90;;;;;;5013236;28;20464;-69
2022/08/23 02:19:31;;;;;;;3.10;2.80;;;15.00;99.90;;;;;;5013236;28;20498;-68
2022/08/23 02:21:58;;;;;;;2.97;2.77;;;15.00;99.90;;;;;;5013158;28;20470;-69
2022/08/23 02:24:25;;;;;;;3.30;2.90;;;14.90;99.90;;;;;;5012779;28;20470;-70
2022/08/23 02:26:55;;;;;;;2.83;2.57;;;14.90;99.90;;;;;;5012679;28;20587;-69
2022/08/23 02:29:24;;;;;;;2.23;2.03;;;14.90;99.90;;;;;;5013117;28;20464;-68
2022/08/23 02:31:50;;;;;;;3.13;2.80;;;14.90;99.90;;;;;;5013027;28;20470;-69
2022/08/23 02:34:19;;;;;;;3.37;3.07;;;14.90;99.90;;;;;;5012314;28;20545;-69
2022/08/23 02:36:46;;;;;;;2.70;2.50;;;14.80;99.90;;;;;;5012854;28;21024;-68
2022/08/23 02:39:14;;;;;;;4.23;2.57;;;14.80;99.90;;;;;;5012662;28;20466;-69
2022/08/23 02:41:41;;;;;;;3.00;2.70;;;14.80;99.90;;;;;;5012766;28;20469;-70
2022/08/23 02:44:09;;;;;;;2.53;2.33;;;14.80;99.90;;;;;;5012374;28;20512;-70
2022/08/23 02:46:36;;;;;;;2.37;2.10;;;14.70;99.90;;;;;;5012268;28;20521;-69
2022/08/23 02:49:03;;;;;;;3.13;2.63;;;14.70;99.90;;;;;;5012602;28;20488;-68
2022/08/23 02:51:31;;;;;;;3.90;2.40;;;14.70;99.90;;;;;;5012393;28;20835;-69
2022/08/23 02:53:58;;;;;;;2.67;2.47;;;14.70;99.90;;;;;;5011947;28;20462;-69
2022/08/23 02:56:25;;;;;;;2.63;2.43;;;14.70;99.90;;;;;;5012522;28;20458;-69
2022/08/23 02:58:52;;;;;;;3.00;2.67;;;14.70;99.90;;;;;;5012225;28;20486;-68
2022/08/23 03:01:21;;;;;;;4.03;2.70;;;14.70;99.90;;;;;;5012513;28;20977;-69
2022/08/23 03:03:47;;;;;;;2.83;2.57;;;14.70;99.90;;;;;;5011673;28;21199;-69
2022/08/23 03:06:15;;;;;;;3.47;2.73;;;14.60;99.90;;;;;;5012440;28;20485;-68
2022/08/23 03:08:43;;;;;;;3.20;2.87;;;14.60;99.90;;;;;;5011858;28;20486;-69
2022/08/23 03:11:15;;;;;;;3.50;3.20;;;14.60;99.90;;;;;;5012444;28;20473;-69
2022/08/23 03:13:44;;;;;;;3.53;2.70;;;14.60;99.90;;;;;;5011585;28;20469;-69
2022/08/23 03:16:11;;;;;;;2.87;2.67;;;14.60;99.90;;;;;;5012134;28;20509;-68
2022/08/23 03:18:39;;;;;;;4.27;3.27;;;14.50;99.90;;;;;;5011874;28;20544;-69
2022/08/23 03:21:07;;;;;;;2.90;2.57;;;14.50;99.90;;;;;;5012029;28;20465;-69
2022/08/23 03:23:35;;;;;;;3.40;2.97;;;14.50;99.90;;;;;;5011405;28;20493;-68
2022/08/23 03:26:05;;;;;;;2.60;2.40;;;14.50;99.90;;;;;;5011767;28;20597;-69
2022/08/23 03:28:34;;;;;;;2.53;2.03;;;14.50;99.90;;;;;;5011888;28;20493;-68
2022/08/23 03:31:01;;;;;;;3.30;3.00;;;14.50;99.90;;;;;;5011966;28;20520;-69
2022/08/23 03:33:28;;;;;;;3.63;3.33;;;14.50;99.90;;;;;;5010934;28;21016;-68
2022/08/23 03:35:58;;;;;;;3.20;2.90;;;14.50;99.90;;;;;;5011006;28;20462;-68
2022/08/23 03:38:25;;;;;;;3.87;3.03;;;14.40;99.90;;;;;;5010038;28;20477;-68
2022/08/23 03:40:52;;;;;;;3.30;3.00;;;14.40;99.90;;;;;;5010580;28;20496;-70
2022/08/23 03:43:21;;;;;;;2.77;2.57;;;14.40;99.90;;;;;;5010229;28;20461;-70
2022/08/23 03:45:48;;;;;;;3.20;2.73;;;14.40;99.90;;;;;;5007537;28;20485;-69
2022/08/23 03:48:15;;;;;;;3.50;2.97;;;14.40;99.90;;;;;;5010256;28;20478;-70
2022/08/23 03:50:43;;;;;;;2.50;2.30;;;14.40;99.90;;;;;;5009824;28;20462;-70
2022/08/23 03:53:10;;;;;;;3.40;2.80;;;14.40;99.90;;;;;;5010435;28;20458;-71
2022/08/23 03:55:37;;;;;;;3.30;2.73;;;14.40;99.90;;;;;;5010082;28;20462;-70
2022/08/23 03:58:03;;;;;;;2.83;2.63;;;14.40;99.90;;;;;;5010353;28;20477;-72
2022/08/23 04:00:31;;;;;;;3.27;2.47;;;14.40;99.90;;;;;;5009856;28;20466;-71
2022/08/23 04:02:59;;;;;;;3.20;2.80;;;14.30;99.90;;;;;;5010068;28;20537;-70
2022/08/23 04:05:27;;;;;;;2.67;2.47;;;14.30;99.90;;;;;;5010236;28;20472;-71
2022/08/23 04:07:53;;;;;;;4.50;2.80;;;14.30;99.90;;;;;;5008791;28;20989;-71
2022/08/23 04:10:20;;;;;;;2.57;2.37;;;14.20;99.90;;;;;;5010862;28;20462;-71
2022/08/23 04:12:48;;;;;;;3.00;2.80;;;14.20;99.90;;;;;;5009594;28;20469;-71
2022/08/23 04:15:15;;;;;;;2.93;2.67;;;14.20;99.90;;;;;;5009643;28;20893;-71
2022/08/23 04:17:43;;;;;;;2.63;2.40;;;14.20;99.90;;;;;;5010791;28;20528;-70
2022/08/23 04:20:10;;;;;;;3.40;3.10;;;14.20;99.90;;;;;;5010295;28;20882;-70
2022/08/23 04:22:37;;;;;;;3.33;3.03;;;14.30;99.90;;;;;;5010459;28;20497;-70
2022/08/23 04:25:05;;;;;;;3.00;2.80;;;14.30;99.90;;;;;;5010198;28;20466;-71
2022/08/23 04:27:31;;;;;;;2.70;2.50;;;14.40;99.90;;;;;;5010715;28;20489;-71
2022/08/23 04:29:58;;;;;;;3.20;2.87;;;14.40;99.90;;;;;;5011011;28;20861;-72
2022/08/23 04:32:25;;;;;;;2.70;2.50;;;14.40;99.90;;;;;;5008566;28;20556;-72
2022/08/23 04:34:53;;;;;;;3.33;3.03;;;14.40;99.90;;;;;;5008687;28;20462;-70
2022/08/23 04:37:20;;;;;;;2.67;2.47;;;14.30;99.90;;;;;;5009280;28;20607;-73
2022/08/23 04:42:27;;;;;;;3.10;2.87;;;14.30;99.90;;;;;;5090411;22;20584;-70
2022/08/23 04:44:54;;;;;;;3.60;2.93;;;14.30;99.90;;;;;;5010373;28;20465;-70
2022/08/23 04:47:21;;;;;;;2.53;2.33;;;14.20;99.90;;;;;;5010768;28;20494;-70
2022/08/23 04:49:47;;;;;;;3.03;2.47;;;14.30;99.90;;;;;;5010747;28;20462;-69
2022/08/23 04:52:15;;;;;;;4.10;3.07;;;14.20;99.90;;;;;;5010930;28;20470;-68
2022/08/23 04:54:42;;;;;;;3.27;2.77;;;14.20;99.90;;;;;;5009737;28;20465;-68
2022/08/23 04:57:09;;;;;;;2.60;2.37;;;14.20;99.90;;;;;;5010818;28;20482;-69
2022/08/23 04:59:35;;;;;;;2.77;2.53;;;14.10;99.90;;;;;;5010592;28;20540;-68
2022/08/23 05:02:02;;;;;;;3.00;2.53;;;14.10;99.90;;;;;;5010913;28;20516;-67
2022/08/23 05:04:31;;;;;;;3.93;3.47;;;14.10;99.90;;;;;;5010016;28;20475;-67
2022/08/23 05:06:58;;;;;;;2.60;2.40;;;14.20;99.90;;;;;;5013592;28;20513;-65
2022/08/23 05:09:26;;;;;;;3.10;2.80;;;14.20;99.90;;;;;;5020370;28;20465;-66
2022/08/23 05:11:53;;;;;;;2.80;2.60;;;14.20;99.90;;;;;;5020893;28;20466;-68
2022/08/23 05:14:20;;;;;;;3.07;2.87;;;14.30;99.90;;;;;;5015305;28;20519;-68
2022/08/23 05:16:46;;;;;;;2.53;2.33;;;14.30;99.90;;;;;;5010539;28;20957;-68
2022/08/23 05:19:13;;;;;;;3.17;2.90;;;14.30;99.90;;;;;;5012819;28;20469;-68
2022/08/23 05:21:40;;;;;;;2.97;2.67;;;14.30;99.90;;;;;;5014771;28;20841;-68
2022/08/23 05:24:06;;;;;;;3.30;3.00;;;14.30;99.90;;;;;;5013955;28;20462;-68
2022/08/23 05:26:34;;;;;;;2.90;2.60;;;14.40;99.90;;;;;;5014437;28;20493;-69
2022/08/23 05:29:01;;;;;;;4.10;2.27;;;14.40;99.90;;;;;;5014262;28;20481;-69
2022/08/23 05:31:29;;;;;;;2.93;2.70;;;14.50;99.90;;;;;;5014197;28;20511;-68
2022/08/23 05:33:56;;;;;;;3.03;2.80;;;14.50;99.90;;;;;;5013531;28;20497;-68
2022/08/23 05:36:23;;;;;;;3.27;2.97;;;14.50;99.90;;;;;;5014071;28;20949;-68
2022/08/23 05:38:51;;;;;;;2.67;2.47;;;14.60;99.90;;;;;;5014125;28;20477;-67
2022/08/23 05:41:18;;;;;;;3.33;3.03;;;14.60;99.90;;;;;;5013692;28;20469;-67
2022/08/23 05:43:46;;;;;;;3.33;2.90;;;14.60;99.90;;;;;;5013769;28;20472;-67
2022/08/23 05:46:16;;;;;;;2.73;2.53;;;14.70;99.90;;;;;;5013624;28;20465;-67
2022/08/23 05:48:46;;;;;;;3.93;3.53;;;14.70;99.90;;;;;;5013859;28;20488;-67
2022/08/23 05:51:15;;;;;;;3.07;2.70;;;14.80;99.90;;;;;;5013734;28;20541;-67
2022/08/23 05:53:44;;;;;;;2.63;2.40;;;14.90;99.90;;;;;;5013521;28;20466;-67
2022/08/23 05:56:16;;;;;;;3.27;2.93;;;14.90;99.90;;;;;;5013980;28;20469;-68
2022/08/23 05:58:44;;;;;;;3.30;3.10;;;15.00;99.90;;;;;;5013842;28;20873;-69
2022/08/23 06:01:13;;;;;;;3.27;2.90;;;15.10;99.90;;;;;;5013829;28;20474;-68
2022/08/23 06:03:40;;;;;;;3.30;3.00;;;15.10;99.90;;;;;;5013157;28;20553;-69
2022/08/23 06:06:07;;;;;;;2.60;2.40;;;15.30;99.90;;;;;;5013873;28;20537;-68
2022/08/23 06:08:37;;;;;;;3.80;3.50;;;15.30;99.90;;;;;;5013413;28;20489;-69
2022/08/23 06:11:05;;;;;;;4.73;3.13;;;15.40;99.90;;;;;;5013682;28;20472;-68
2022/08/23 06:13:32;;;;;;;2.80;2.60;;;15.50;99.90;;;;;;5013152;28;20465;-68
2022/08/23 06:15:59;;;;;;;3.70;3.03;;;15.70;99.90;;;;;;5013687;28;20468;-66
2022/08/23 06:18:27;;;;;;;3.37;3.07;;;15.70;99.90;;;;;;5013203;28;20497;-66
2022/08/23 06:21:01;;;;;;;3.00;2.73;;;15.80;99.90;;;;;;5013482;28;20462;-69
2022/08/23 06:23:29;;;;;;;3.60;3.30;;;16.00;99.90;;;;;;5012801;28;20465;-68
2022/08/23 06:25:56;;;;;;;3.27;2.97;;;16.10;99.90;;;;;;5013449;28;20462;-67
2022/08/23 06:28:23;;;;;;;5.23;3.37;;;16.20;99.90;;;;;;5031728;28;20484;-68
2022/08/23 06:30:53;;;;;;;3.30;3.00;;;16.40;99.90;;;;;;5032836;28;20461;-66
2022/08/23 06:33:20;;;;;;;3.43;3.00;;;16.50;99.90;;;;;;5032369;28;20492;-67
2022/08/23 06:35:49;;;;;;;6.10;3.07;;;16.60;99.90;;;;;;5032863;28;20504;-66
2022/08/23 06:38:16;;;;;;;3.50;3.20;;;16.80;99.90;;;;;;5032710;28;20477;-66
2022/08/23 06:40:43;;;;;;;3.30;3.00;;;17.00;99.90;;;;;;5032916;28;20473;-66
2022/08/23 06:43:10;;;;;;;2.90;2.67;;;17.10;99.90;;;;;;5033045;28;20556;-67
2022/08/23 06:45:37;;;;;;;2.53;2.33;;;17.30;99.90;;;;;;5032099;28;20461;-71
2022/08/23 06:48:04;;;;;;;3.17;2.87;;;17.50;99.90;;;;;;5032589;28;20500;-67
2022/08/23 06:50:31;;;;;;;2.97;2.77;;;17.70;99.90;;;;;;5032577;28;20461;-67
2022/08/23 06:52:59;;;;;;;4.13;2.97;;;17.90;99.90;;;;;;5032734;28;20468;-67
2022/08/23 06:55:25;;;;;;;3.60;3.00;;;18.20;99.90;;;;;;5031995;28;20518;-68
2022/08/23 06:57:52;;;;;;;3.43;3.13;;;18.30;99.90;;;;;;5032473;28;20535;-67
2022/08/23 07:00:19;;;;;;;2.83;2.63;;;18.40;99.90;;;;;;5032464;28;20465;-66
2022/08/23 07:02:46;;;;;;;3.63;2.83;;;18.60;99.90;;;;;;5032423;28;20461;-68
2022/08/23 07:05:13;;;;;;;3.10;2.80;;;18.80;99.90;;;;;;5031807;28;20522;-67
2022/08/23 07:07:39;;;;;;;3.07;2.70;;;18.90;99.90;;;;;;5031953;28;20503;-69
2022/08/23 07:10:09;;;;;;;2.60;2.40;;;19.00;99.90;;;;;;5032291;28;20464;-67
2022/08/23 07:12:40;;;;;;;3.37;2.97;;;19.20;99.90;;;;;;5032288;28;20468;-66
2022/08/23 07:15:08;;;;;;;3.30;2.50;;;19.30;99.90;;;;;;5031489;28;20472;-66
2022/08/23 07:17:35;;;;;;;4.63;2.80;;;19.40;99.90;;;;;;5032130;28;20480;-68
2022/08/23 07:20:02;;;;;;;3.33;3.03;;;19.60;99.90;;;;;;5031849;28;20472;-68
2022/08/23 07:22:28;;;;;;;2.97;2.40;;;19.70;99.90;;;;;;5031983;28;20850;-69
2022/08/23 07:24:56;;;;;;;2.63;2.43;;;19.90;99.90;;;;;;5031243;28;20878;-68
2022/08/23 07:27:24;;;;;;;3.23;2.50;;;20.00;99.90;;;;;;5031726;28;20497;-68
2022/08/23 07:29:51;;;;;;;3.03;2.67;;;20.20;99.90;;;;;;5031714;28;20816;-69
2022/08/23 07:32:17;;;;;;;3.07;2.87;;;20.30;99.90;;;;;;5031707;28;20465;-68
2022/08/23 07:34:44;;;;;;;2.90;2.43;;;20.50;99.90;;;;;;5031276;28;20465;-67
2022/08/23 07:37:12;;;;;;;3.23;2.63;;;20.60;99.90;;;;;;5031282;28;20481;-67
2022/08/23 07:39:39;;;;;;;3.23;2.93;;;20.70;99.90;;;;;;5031804;28;20463;-67
2022/08/23 07:42:07;;;;;;;2.50;2.30;;;20.80;99.90;;;;;;5030634;28;20857;-67
2022/08/23 07:44:35;;;;;;;3.27;2.97;;;20.90;99.90;;;;;;5031389;28;20892;-68
2022/08/23 07:47:02;;;;;;;3.27;2.50;;;21.00;99.90;;;;;;5031166;28;20631;-68
2022/08/23 07:49:29;;;;;;;3.00;2.70;;;21.10;99.90;;;;;;5031491;28;20465;-68
2022/08/23 07:51:57;;;;;;;2.43;2.23;;;21.20;99.90;;;;;;5031576;28;20465;-66
2022/08/23 07:54:26;;;;;;;2.67;2.43;;;21.30;99.90;;;;;;5030598;28;20897;-68
2022/08/23 07:56:53;;;;;;;2.20;2.00;;;21.40;99.90;;;;;;5031398;28;20467;-67
2022/08/23 07:59:20;;;;;;;2.27;1.97;;;21.50;99.50;;;;;;5031095;28;20572;-69
2022/08/23 08:01:48;;;;;;;3.00;2.47;;;21.50;98.60;;;;;;5031648;28;20472;-68
2022/08/23 08:04:14;;;;;;;2.33;2.13;;;21.50;98.40;;;;;;5030587;28;20461;-67
2022/08/23 08:06:44;;;;;;;2.07;1.93;;;21.60;97.70;;;;;;5031293;28;20467;-69
2022/08/23 08:09:13;;;;;;;2.00;1.87;;;21.80;97.80;;;;;;5031207;28;20582;-68
2022/08/23 08:11:42;;;;;;;2.70;1.77;;;21.90;98.00;;;;;;5031189;28;20467;-67
2022/08/23 08:14:10;;;;;;;2.23;2.03;;;22.00;97.60;;;;;;5030732;28;20500;-66
2022/08/23 08:16:40;;;;;;;3.00;2.43;;;22.10;97.70;;;;;;5031006;28;20497;-67
2022/08/23 08:19:13;;;;;;;2.20;2.00;;;22.30;97.70;;;;;;5031155;28;20479;-67
2022/08/23 08:21:41;;;;;;;2.53;2.33;;;22.40;96.40;;;;;;5031011;28;20834;-67
2022/08/23 08:24:10;;;;;;;2.63;2.43;;;22.60;96.60;;;;;;5030706;28;20876;-67
2022/08/23 08:26:37;;;;;;;2.77;2.40;;;22.70;97.00;;;;;;5031228;28;20463;-67
2022/08/23 08:29:04;;;;;;;1.87;1.77;;;22.80;96.90;;;;;;5030667;28;20490;-69
2022/08/23 08:31:31;;;;;;;2.27;2.07;;;23.00;96.20;;;;;;5030723;28;20807;-69
2022/08/23 08:33:57;;;;;;;3.00;2.13;;;23.10;94.90;;;;;;5030229;28;20467;-68
2022/08/23 08:36:33;;;;;;;2.40;2.20;;;23.20;95.20;;;;;;5030690;28;20500;-68
2022/08/23 08:39:01;;;;;;;2.27;2.07;;;23.20;96.50;;;;;;5030359;28;20475;-68
2022/08/23 08:41:44;;;;;;;2.40;2.20;;;23.20;93.50;;;;;;5030499;28;20528;-68
2022/08/23 08:44:22;;;;;;;2.30;1.87;;;23.30;94.00;;;;;;5030146;28;20460;-68
2022/08/23 08:46:52;;;;;;;2.10;1.80;;;23.30;94.60;;;;;;5030590;28;20867;-69
2022/08/23 08:49:31;;;;;;;2.20;2.00;;;23.50;95.10;;;;;;5030564;28;20524;-69
2022/08/23 08:52:14;;;;;;;3.90;2.50;;;23.70;95.20;;;;;;5030706;28;20466;-67
2022/08/23 08:54:42;;;;;;;2.97;2.50;;;23.80;94.00;;;;;;5025006;28;20515;-68
2022/08/23 08:57:14;;;;;;;2.77;2.57;;;23.90;95.60;;;;;;5029686;28;20489;-68
2022/08/23 08:59:47;;;;;;;2.30;2.10;;;24.00;93.50;;;;;;5032298;28;20559;-67
2022/08/23 09:02:17;;;;;;;2.77;2.47;;;24.10;93.40;;;;;;4995224;28;20471;-67
2022/08/23 09:04:44;;;;;;;2.30;2.03;;;24.20;95.00;;;;;;4995155;28;20536;-67
2022/08/23 09:07:19;;;;;;;2.57;2.37;;;24.30;94.00;;;;;;4994900;28;20512;-65
2022/08/23 09:09:59;;;;;;;1.90;1.80;;;24.40;93.90;;;;;;4995049;28;20458;-67
2022/08/23 09:12:36;;;;;;;2.60;2.17;;;24.50;93.70;;;;;;4995071;28;20477;-68
2022/08/23 09:15:16;;;;;;;3.50;1.93;;;24.60;94.10;;;;;;4994387;28;20852;-69
2022/08/23 09:17:46;;;;;;;4.50;2.00;;;24.80;92.70;;;;;;4995158;28;20504;-69
2022/08/23 09:20:16;;;;;;;2.20;2.00;;;25.00;93.70;;;;;;4994659;28;20476;-68
2022/08/23 09:22:47;;;;;;;2.23;2.03;;;25.10;93.80;;;;;;4995166;28;20477;-68
2022/08/23 09:25:16;;;;;;;2.60;1.77;;;25.20;93.20;;;;;;4994087;28;20466;-68
2022/08/23 09:27:44;;;;;;;2.83;2.10;;;25.40;91.30;;;;;;4994895;28;20591;-68
2022/08/23 09:30:13;;;;;;;2.50;2.30;;;25.40;93.10;;;;;;4996374;28;20469;-68
2022/08/23 09:32:42;;;;;;;2.20;2.00;;;25.50;93.80;;;;;;5010947;28;20464;-68
2022/08/23 09:35:13;;;;;;;3.10;2.00;;;25.60;91.60;;;;;;5011866;28;20884;-67
2022/08/23 09:37:55;;;;;;;2.07;1.90;;;25.60;92.30;;;;;;5013568;28;20485;-68
2022/08/23 09:40:30;;;;;;;3.00;2.30;;;25.60;92.20;;;;;;5011376;28;21042;-68
2022/08/23 09:43:14;;;;;;;2.80;2.00;;;25.70;89.80;;;;;;5013632;28;20907;-68
2022/08/23 09:45:52;;;;;;;2.00;1.80;;;25.60;91.70;;;;;;5012383;28;20461;-68
2022/08/23 09:48:35;;;;;;;3.50;2.33;;;25.70;90.20;;;;;;5014042;28;20469;-70
2022/08/23 09:51:13;;;;;;;2.50;2.23;;;25.80;90.70;;;;;;5013294;28;20464;-67
2022/08/23 09:53:48;;;;;;;3.00;2.00;;;25.80;90.50;;;;;;5012935;28;20461;-65
2022/08/23 09:56:18;;;;;;;2.47;1.93;;;25.90;91.20;;;;;;5013607;28;20469;-66
2022/08/23 09:58:49;;;;;;;2.43;2.23;;;26.00;90.60;;;;;;5014086;28;20504;-67
2022/08/23 10:01:22;;;;;;;2.23;1.87;;;26.10;91.80;;;;;;5012676;28;20465;-67
2022/08/23 10:04:09;;;;;;;2.40;2.10;;;26.30;91.70;;;;;;5011921;28;20511;-65
2022/08/23 10:06:36;;;;;;;2.57;1.93;;;26.50;91.40;;;;;;5012763;28;20469;-65
2022/08/23 10:09:07;;;;;;;2.90;2.33;;;26.70;90.50;;;;;;5013422;28;20481;-66
2022/08/23 10:11:38;;;;;;;2.10;1.90;;;26.70;90.90;;;;;;5012558;28;20454;-65
2022/08/23 10:14:05;;;;;;;2.10;1.90;;;26.80;91.60;;;;;;5012068;28;20690;-65
2022/08/23 10:16:40;;;;;;;2.37;1.90;;;26.90;90.80;;;;;;5012277;28;20470;-66
2022/08/23 10:19:15;;;;;;;2.50;2.07;;;27.10;92.10;;;;;;5014155;28;20481;-68
2022/08/23 10:21:50;;;;;;;2.53;2.27;;;27.20;88.20;;;;;;5012562;28;20921;-66
2022/08/23 10:24:27;;;;;;;2.73;1.97;;;27.10;91.00;;;;;;5011400;28;20973;-67
2022/08/23 10:29:35;;;;;;;2.23;1.90;;;27.30;91.20;;;;;;5012188;28;20560;-67
2022/08/23 10:30:00;;;;;;;2.83;1.83;;;27.40;90.30;;;;;;5012855;28;20476;-68
2022/08/23 10:32:40;;;;;;;2.53;1.97;;;27.50;90.50;;;;;;5012467;28;20467;-67
2022/08/23 10:35:28;;;;;;;2.00;1.80;;;27.50;89.10;;;;;;5010974;28;20492;-66
2022/08/23 10:38:23;;;;;;;2.40;1.70;;;27.70;88.70;;;;;;5013119;28;20627;-68
2022/08/23 10:40:58;;;;;;;1.93;1.83;;;27.80;90.30;;;;;;5011958;28;20470;-68
2022/08/23 10:43:36;;;;;;;2.00;1.70;;;28.10;87.10;;;;;;5011364;28;20496;-68
2022/08/23 10:46:03;;;;;;;2.93;2.20;;;28.20;87.60;;;;;;5011758;28;20560;-67
2022/08/23 10:48:34;;;;;;;2.20;2.00;;;28.30;88.80;;;;;;5012280;28;20513;-68
2022/08/23 10:51:03;;;;;;;2.33;2.03;;;28.40;83.10;;;;;;5012100;28;20462;-67
2022/08/23 10:53:44;;;;;;;2.00;1.70;;;28.40;84.50;;;;;;5011064;28;20500;-67
2022/08/23 10:56:17;;;;;;;1.90;1.60;;;28.50;86.60;;;;;;5011727;28;20986;-67
2022/08/23 10:58:48;;;;;;;1.77;1.67;;;28.60;86.70;;;;;;5012099;28;20477;-67
2022/08/23 11:01:17;;;;;;;2.00;1.60;;;28.70;87.00;;;;;;5011787;28;20466;-67
2022/08/23 11:03:59;;;;;;;2.60;2.30;;;28.90;85.20;;;;;;5011339;28;20458;-67
2022/08/23 11:06:51;;;;;;;1.80;1.70;;;29.00;84.10;;;;;;5031751;22;20489;-65
2022/08/23 11:09:38;;;;;;;2.10;1.87;;;28.90;79.30;;;;;;4992596;28;20490;-65
2022/08/23 11:12:22;;;;;;;2.37;1.87;;;28.70;76.70;;;;;;4992923;28;20847;-69
2022/08/23 11:15:03;;;;;;;3.53;2.40;;;28.50;76.80;;;;;;4994522;28;20470;-68
2022/08/23 11:17:39;;;;;;;3.73;2.07;;;28.50;79.20;;;;;;4994287;28;20482;-67
2022/08/23 11:20:09;;;;;;;1.80;1.70;;;28.50;81.10;;;;;;4992712;28;20466;-64
2022/08/23 11:23:06;;;;;;;2.23;1.73;;;28.70;84.30;;;;;;5004186;28;20465;-66
2022/08/23 11:25:43;;;;;;;2.03;1.80;;;28.90;80.50;;;;;;5008685;28;20462;-66
2022/08/23 11:28:39;;;;;;;1.70;1.60;;;29.10;81.40;;;;;;5011799;28;20861;-65
2022/08/23 11:33:42;;;;;;;2.33;2.10;;;29.20;76.70;;;;;;5014535;28;20512;-69
2022/08/23 11:36:20;;;;;;;1.90;1.70;;;29.10;82.10;;;;;;5026585;28;20456;-69
2022/08/23 11:39:13;;;;;;;2.13;1.87;;;29.20;82.60;;;;;;5031097;28;20570;-69
2022/08/23 11:42:00;;;;;;;2.03;1.67;;;29.30;80.20;;;;;;5030402;28;20457;-65
2022/08/23 11:44:36;;;;;;;2.30;2.10;;;29.30;75.00;;;;;;5025951;28;20469;-66
2022/08/23 11:47:06;;;;;;;2.40;2.20;;;29.10;77.10;;;;;;5031078;28;20460;-66
2022/08/23 11:50:11;;;;;;;2.17;1.77;;;28.90;76.90;;;;;;5030456;28;20495;-68
2022/08/23 11:52:57;;;;;;;2.07;1.80;;;28.80;79.80;;;;;;5030682;28;20465;-67
2022/08/23 11:55:58;;;;;;;2.03;1.83;;;28.90;79.90;;;;;;5025392;28;20885;-67
2022/08/23 11:58:32;;;;;;;1.53;1.40;;;29.00;78.50;;;;;;5025179;28;21031;-70
2022/08/23 12:01:12;;;;;;;2.80;1.80;;;29.20;82.40;;;;;;5030669;28;20464;-69
2022/08/23 12:03:54;;;;;;;1.97;1.60;;;29.40;79.30;;;;;;5030426;28;20460;-67
2022/08/23 12:07:00;;;;;;;2.30;1.90;;;29.50;81.40;;;;;;5025289;28;20456;-67
2022/08/23 12:09:53;;;;;;;1.87;1.67;;;29.70;81.10;;;;;;4950327;29;20488;-71
2022/08/23 12:12:29;;;;;;;2.10;1.90;;;29.90;79.90;;;;;;4950278;29;20477;-70
2022/08/23 12:14:58;;;;;;;3.30;2.03;;;30.00;80.00;;;;;;5002475;28;20460;-68
2022/08/23 12:18:06;;;;;;;2.00;1.80;;;30.10;81.30;;;;;;5030152;28;20576;-67
2022/08/23 12:20:34;;;;;;;2.27;2.07;;;30.20;78.40;;;;;;5030500;28;20846;-67
2022/08/23 12:23:12;;;;;;;2.27;1.77;;;30.30;79.40;;;;;;5030204;28;20465;-68
2022/08/23 12:25:39;;;;;;;2.00;1.70;;;30.30;76.70;;;;;;5025204;28;20849;-67
2022/08/23 12:28:20;;;;;;;2.27;2.07;;;30.30;78.70;;;;;;5029613;28;20512;-69
2022/08/23 12:30:56;;;;;;;2.17;1.60;;;30.40;80.00;;;;;;5029680;28;20484;-68
2022/08/23 12:33:35;;;;;;;1.67;1.57;;;30.40;76.30;;;;;;5029932;28;20468;-68
2022/08/23 12:36:14;;;;;;;2.27;1.77;;;30.40;76.90;;;;;;5026899;28;20468;-69
2022/08/23 12:38:52;;;;;;;1.80;1.67;;;30.40;78.50;;;;;;5030294;28;20849;-69
2022/08/23 12:41:22;;;;;;;2.50;1.87;;;30.30;74.20;;;;;;5029637;28;20456;-69
2022/08/23 12:43:59;;;;;;;2.00;1.80;;;30.10;75.90;;;;;;5029487;28;20468;-70
2022/08/23 12:46:32;;;;;;;2.20;2.00;;;30.10;75.30;;;;;;5025780;28;20461;-69
2022/08/23 12:49:00;;;;;;;3.50;2.07;;;29.90;74.20;;;;;;5029483;28;20495;-69
2022/08/23 12:51:27;;;;;;;2.23;1.80;;;29.80;78.50;;;;;;5030106;28;20981;-69
2022/08/23 12:53:54;;;;;;;1.80;1.70;;;29.90;80.00;;;;;;5028729;28;20953;-70
2022/08/23 12:56:25;;;;;;;2.17;2.00;;;30.10;79.20;;;;;;5026052;28;20985;-69
2022/08/23 12:58:55;;;;;;;2.33;2.03;;;30.20;78.80;;;;;;5029553;28;20481;-68
2022/08/23 13:01:25;;;;;;;1.90;1.80;;;30.30;78.30;;;;;;5030061;28;20472;-68
2022/08/23 13:03:57;;;;;;;2.20;2.00;;;30.50;77.20;;;;;;5029304;28;20878;-69
2022/08/23 13:06:30;;;;;;;5.60;2.17;;;30.50;77.30;;;;;;5024638;28;20465;-70
2022/08/23 13:09:02;;;;;;;2.20;2.00;;;30.50;79.10;;;;;;5029793;28;20481;-69
2022/08/23 13:11:32;;;;;;;2.33;1.90;;;30.60;77.70;;;;;;5030583;28;20886;-70
2022/08/23 13:13:59;;;;;;;2.10;1.70;;;30.70;76.00;;;;;;5029702;28;20465;-71
2022/08/23 13:16:31;;;;;;;2.17;1.93;;;30.60;77.20;;;;;;5025558;28;20492;-70
2022/08/23 13:19:16;;;;;;;2.73;2.00;;;30.70;77.50;;;;;;5029425;28;20485;-69